sensor_id;sensor_type;location;lat;lon;timestamp;pressure;altitude;pressure_sealevel;temperature;humidity
3142;BME280;1581;51.568;6.998;2023-03-08T00:00:40;99370.72;;;2.73;100.00
3142;BME280;1581;51.568;6.998;2023-03-08T00:03:12;99371.19;;;2.47;100.00
3142;BME280;1581;51.568;6.998;2023-03-08T00:05:40;99364.22;;;2.61;100.00
3142;BME280;1581;51.568;6.998;2023-03-08T00:08:07;99363.47;;;2.45;100.00
3142;BME280;1581;51.568;6.998;2023-03-08T00:10:36;99372.25;;;2.22;100.00
3142;BME280;1581;51.568;6.998;2023-03-08T00:13:04;99371.13;;;2.24;100.00
3142;BME280;1581;51.568;6.998;2023-03-08T00:15:35;99376.66;;;2.37;100.00
3142;BME280;1581;51.568;6.998;2023-03-08T00:18:04;99374.47;;;2.02;100.00
3142;BME280;1581;51.568;6.998;2023-03-08T00:20:31;99365.25;;;2.14;100.00
3142;BME280;1581;51.568;6.998;2023-03-08T00:22:59;99364.34;;;2.38;100.00
3142;BME280;1581;51.568;6.998;2023-03-08T00:25:27;99369.75;;;2.44;100.00
3142;BME280;1581;51.568;6.998;2023-03-08T00:27:54;99366.06;;;2.15;100.00
3142;BME280;1581;51.568;6.998;2023-03-08T00:30:22;99364.28;;;1.99;100.00
3142;BME280;1581;51.568;6.998;2023-03-08T00:32:51;99363.59;;;2.05;100.00
3142;BME280;1581;51.568;6.998;2023-03-08T00:35:19;99358.19;;;2.07;100.00
3142;BME280;1581;51.568;6.998;2023-03-08T00:37:46;99361.84;;;1.98;100.00
3142;BME280;1581;51.568;6.998;2023-03-08T00:40:14;99358.69;;;2.02;100.00
3142;BME280;1581;51.568;6.998;2023-03-08T00:42:42;99363.81;;;1.88;100.00
3142;BME280;1581;51.568;6.998;2023-03-08T00:45:11;99371.50;;;1.97;100.00
3142;BME280;1581;51.568;6.998;2023-03-08T00:47:38;99378.75;;;1.87;100.00
3142;BME280;1581;51.568;6.998;2023-03-08T00:50:09;99373.47;;;2.03;100.00
3142;BME280;1581;51.568;6.998;2023-03-08T00:52:37;99362.16;;;1.95;100.00
3142;BME280;1581;51.568;6.998;2023-03-08T00:55:06;99356.09;;;1.94;100.00
3142;BME280;1581;51.568;6.998;2023-03-08T00:57:33;99352.00;;;1.84;100.00
3142;BME280;1581;51.568;6.998;2023-03-08T01:00:01;99352.94;;;2.07;100.00
3142;BME280;1581;51.568;6.998;2023-03-08T01:02:33;99352.59;;;2.10;100.00
3142;BME280;1581;51.568;6.998;2023-03-08T01:05:03;99359.19;;;1.90;100.00
3142;BME280;1581;51.568;6.998;2023-03-08T01:07:32;99353.47;;;1.94;100.00
3142;BME280;1581;51.568;6.998;2023-03-08T01:10:00;99357.94;;;1.78;100.00
3142;BME280;1581;51.568;6.998;2023-03-08T01:12:31;99356.25;;;1.93;100.00
3142;BME280;1581;51.568;6.998;2023-03-08T01:15:00;99346.69;;;2.16;100.00
3142;BME280;1581;51.568;6.998;2023-03-08T01:17:27;99348.94;;;2.27;100.00
3142;BME280;1581;51.568;6.998;2023-03-08T01:19:55;99353.66;;;2.39;100.00
3142;BME280;1581;51.568;6.998;2023-03-08T01:22:23;99342.09;;;2.48;100.00
3142;BME280;1581;51.568;6.998;2023-03-08T01:24:52;99344.44;;;2.43;100.00
3142;BME280;1581;51.568;6.998;2023-03-08T01:27:20;99339.78;;;2.53;100.00
3142;BME280;1581;51.568;6.998;2023-03-08T01:29:47;99338.44;;;2.27;100.00
3142;BME280;1581;51.568;6.998;2023-03-08T01:32:15;99332.38;;;2.18;100.00
3142;BME280;1581;51.568;6.998;2023-03-08T01:34:43;99331.66;;;2.32;100.00
3142;BME280;1581;51.568;6.998;2023-03-08T01:37:10;99325.56;;;1.93;100.00
3142;BME280;1581;51.568;6.998;2023-03-08T01:39:38;99316.56;;;2.26;100.00
3142;BME280;1581;51.568;6.998;2023-03-08T01:42:07;99321.84;;;2.18;100.00
3142;BME280;1581;51.568;6.998;2023-03-08T01:44:53;99319.38;;;2.25;100.00
3142;BME280;1581;51.568;6.998;2023-03-08T01:47:23;99317.75;;;2.24;100.00
3142;BME280;1581;51.568;6.998;2023-03-08T01:49:53;99318.31;;;2.42;100.00
3142;BME280;1581;51.568;6.998;2023-03-08T01:52:24;99312.91;;;2.35;100.00
3142;BME280;1581;51.568;6.998;2023-03-08T01:54:57;99306.53;;;1.91;100.00
3142;BME280;1581;51.568;6.998;2023-03-08T01:57:31;99297.22;;;2.19;100.00
3142;BME280;1581;51.568;6.998;2023-03-08T02:00:05;99294.09;;;2.24;100.00
3142;BME280;1581;51.568;6.998;2023-03-08T02:02:48;99293.91;;;2.33;100.00
3142;BME280;1581;51.568;6.998;2023-03-08T02:05:18;99291.34;;;2.48;100.00
3142;BME280;1581;51.568;6.998;2023-03-08T02:07:45;99276.53;;;2.54;100.00
3142;BME280;1581;51.568;6.998;2023-03-08T02:10:14;99274.88;;;2.53;100.00
3142;BME280;1581;51.568;6.998;2023-03-08T02:12:44;99277.91;;;2.65;100.00
3142;BME280;1581;51.568;6.998;2023-03-08T02:15:15;99266.13;;;2.61;100.00
3142;BME280;1581;51.568;6.998;2023-03-08T02:17:44;99258.91;;;2.63;100.00
3142;BME280;1581;51.568;6.998;2023-03-08T02:20:16;99262.69;;;2.30;100.00
3142;BME280;1581;51.568;6.998;2023-03-08T02:22:46;99253.88;;;2.23;100.00
3142;BME280;1581;51.568;6.998;2023-03-08T02:25:20;99254.38;;;2.49;100.00
3142;BME280;1581;51.568;6.998;2023-03-08T02:27:49;99253.91;;;2.68;100.00
3142;BME280;1581;51.568;6.998;2023-03-08T02:30:24;99247.66;;;2.69;100.00
3142;BME280;1581;51.568;6.998;2023-03-08T02:32:52;99243.50;;;2.74;100.00
3142;BME280;1581;51.568;6.998;2023-03-08T02:35:19;99248.25;;;2.56;100.00
3142;BME280;1581;51.568;6.998;2023-03-08T02:37:48;99246.38;;;2.65;100.00
3142;BME280;1581;51.568;6.998;2023-03-08T02:40:17;99243.72;;;2.65;100.00
3142;BME280;1581;51.568;6.998;2023-03-08T02:42:45;99248.50;;;2.69;100.00
3142;BME280;1581;51.568;6.998;2023-03-08T02:45:13;99251.41;;;2.74;100.00
3142;BME280;1581;51.568;6.998;2023-03-08T02:47:40;99246.19;;;2.89;100.00
3142;BME280;1581;51.568;6.998;2023-03-08T02:50:10;99252.34;;;3.04;100.00
3142;BME280;1581;51.568;6.998;2023-03-08T02:52:37;99247.66;;;3.14;100.00
3142;BME280;1581;51.568;6.998;2023-03-08T02:55:08;99245.31;;;2.96;100.00
3142;BME280;1581;51.568;6.998;2023-03-08T02:57:35;99235.31;;;3.14;100.00
3142;BME280;1581;51.568;6.998;2023-03-08T03:00:04;99234.53;;;3.28;100.00
3142;BME280;1581;51.568;6.998;2023-03-08T03:02:33;99223.06;;;3.21;100.00
3142;BME280;1581;51.568;6.998;2023-03-08T03:05:02;99230.16;;;3.21;100.00
3142;BME280;1581;51.568;6.998;2023-03-08T03:07:33;99230.28;;;3.05;100.00
3142;BME280;1581;51.568;6.998;2023-03-08T03:10:01;99227.03;;;2.80;100.00
3142;BME280;1581;51.568;6.998;2023-03-08T03:12:30;99232.44;;;3.01;100.00
3142;BME280;1581;51.568;6.998;2023-03-08T03:14:59;99227.44;;;3.29;100.00
3142;BME280;1581;51.568;6.998;2023-03-08T03:17:27;99223.25;;;3.34;100.00
3142;BME280;1581;51.568;6.998;2023-03-08T03:19:55;99220.53;;;3.28;100.00
3142;BME280;1581;51.568;6.998;2023-03-08T03:22:22;99230.75;;;2.86;100.00
3142;BME280;1581;51.568;6.998;2023-03-08T03:24:50;99226.25;;;2.94;100.00
3142;BME280;1581;51.568;6.998;2023-03-08T03:27:18;99228.03;;;2.79;100.00
3142;BME280;1581;51.568;6.998;2023-03-08T03:29:47;99225.97;;;3.12;100.00
3142;BME280;1581;51.568;6.998;2023-03-08T03:32:15;99213.31;;;2.93;100.00
3142;BME280;1581;51.568;6.998;2023-03-08T03:34:43;99208.38;;;3.27;100.00
3142;BME280;1581;51.568;6.998;2023-03-08T03:37:11;99207.63;;;2.81;100.00
3142;BME280;1581;51.568;6.998;2023-03-08T03:39:38;99215.84;;;2.64;100.00
3142;BME280;1581;51.568;6.998;2023-03-08T03:42:07;99215.25;;;2.54;100.00
3142;BME280;1581;51.568;6.998;2023-03-08T03:44:34;99214.72;;;2.58;100.00
3142;BME280;1581;51.568;6.998;2023-03-08T03:47:04;99216.81;;;2.63;100.00
3142;BME280;1581;51.568;6.998;2023-03-08T03:49:32;99207.16;;;2.78;100.00
3142;BME280;1581;51.568;6.998;2023-03-08T03:52:00;99205.00;;;2.81;100.00
3142;BME280;1581;51.568;6.998;2023-03-08T03:54:27;99197.56;;;2.85;100.00
3142;BME280;1581;51.568;6.998;2023-03-08T03:56:55;99188.53;;;2.65;100.00
3142;BME280;1581;51.568;6.998;2023-03-08T03:59:23;99198.53;;;2.47;100.00
3142;BME280;1581;51.568;6.998;2023-03-08T04:01:51;99189.88;;;2.61;100.00
3142;BME280;1581;51.568;6.998;2023-03-08T04:04:20;99192.00;;;2.43;100.00
3142;BME280;1581;51.568;6.998;2023-03-08T04:06:48;99198.41;;;2.63;100.00
3142;BME280;1581;51.568;6.998;2023-03-08T04:09:17;99186.84;;;2.72;100.00
3142;BME280;1581;51.568;6.998;2023-03-08T04:11:45;99179.47;;;2.67;100.00
3142;BME280;1581;51.568;6.998;2023-03-08T04:14:13;99168.16;;;2.81;100.00
3142;BME280;1581;51.568;6.998;2023-03-08T04:16:41;99164.59;;;2.97;100.00
3142;BME280;1581;51.568;6.998;2023-03-08T04:19:11;99163.88;;;3.03;100.00
3142;BME280;1581;51.568;6.998;2023-03-08T04:21:41;99157.78;;;3.02;100.00
3142;BME280;1581;51.568;6.998;2023-03-08T04:24:09;99165.53;;;3.04;100.00
3142;BME280;1581;51.568;6.998;2023-03-08T04:26:37;99156.91;;;3.24;100.00
3142;BME280;1581;51.568;6.998;2023-03-08T04:29:04;99152.84;;;3.22;100.00
3142;BME280;1581;51.568;6.998;2023-03-08T04:31:34;99154.53;;;3.15;100.00
3142;BME280;1581;51.568;6.998;2023-03-08T04:34:02;99152.19;;;3.20;100.00
3142;BME280;1581;51.568;6.998;2023-03-08T04:36:30;99139.47;;;3.23;100.00
3142;BME280;1581;51.568;6.998;2023-03-08T04:38:59;99136.13;;;2.63;100.00
3142;BME280;1581;51.568;6.998;2023-03-08T04:41:27;99140.13;;;2.59;100.00
3142;BME280;1581;51.568;6.998;2023-03-08T04:43:56;99136.34;;;2.76;100.00
3142;BME280;1581;51.568;6.998;2023-03-08T04:46:26;99130.69;;;3.02;100.00
3142;BME280;1581;51.568;6.998;2023-03-08T04:48:54;99122.69;;;3.10;100.00
3142;BME280;1581;51.568;6.998;2023-03-08T04:51:24;99122.88;;;3.23;100.00
3142;BME280;1581;51.568;6.998;2023-03-08T04:53:52;99124.13;;;3.12;100.00
3142;BME280;1581;51.568;6.998;2023-03-08T04:56:21;99113.91;;;3.32;100.00
3142;BME280;1581;51.568;6.998;2023-03-08T04:58:49;99106.38;;;3.29;100.00
3142;BME280;1581;51.568;6.998;2023-03-08T05:01:19;99097.13;;;3.33;100.00
3142;BME280;1581;51.568;6.998;2023-03-08T05:03:48;99099.75;;;3.33;100.00
3142;BME280;1581;51.568;6.998;2023-03-08T05:06:17;99100.63;;;3.39;100.00
3142;BME280;1581;51.568;6.998;2023-03-08T05:08:45;99097.47;;;3.30;100.00
3142;BME280;1581;51.568;6.998;2023-03-08T05:11:16;99100.09;;;3.30;100.00
3142;BME280;1581;51.568;6.998;2023-03-08T05:13:46;99097.81;;;3.12;100.00
3142;BME280;1581;51.568;6.998;2023-03-08T05:16:14;99094.03;;;3.43;100.00
3142;BME280;1581;51.568;6.998;2023-03-08T05:18:42;99097.38;;;3.38;100.00
3142;BME280;1581;51.568;6.998;2023-03-08T05:21:12;99083.56;;;3.36;100.00
3142;BME280;1581;51.568;6.998;2023-03-08T05:23:41;99081.75;;;3.50;100.00
3142;BME280;1581;51.568;6.998;2023-03-08T05:26:11;99076.16;;;3.39;100.00
3142;BME280;1581;51.568;6.998;2023-03-08T05:28:40;99079.28;;;3.35;100.00
3142;BME280;1581;51.568;6.998;2023-03-08T05:31:12;99071.69;;;3.39;100.00
3142;BME280;1581;51.568;6.998;2023-03-08T05:33:42;99076.84;;;3.47;100.00
3142;BME280;1581;51.568;6.998;2023-03-08T05:36:13;99073.59;;;3.31;100.00
3142;BME280;1581;51.568;6.998;2023-03-08T05:38:40;99064.91;;;3.16;100.00
3142;BME280;1581;51.568;6.998;2023-03-08T05:41:12;99057.09;;;3.37;100.00
3142;BME280;1581;51.568;6.998;2023-03-08T05:43:40;99056.53;;;3.41;100.00
3142;BME280;1581;51.568;6.998;2023-03-08T05:46:12;99047.38;;;3.23;100.00
3142;BME280;1581;51.568;6.998;2023-03-08T05:48:40;99032.03;;;3.12;100.00
3142;BME280;1581;51.568;6.998;2023-03-08T05:51:10;99036.56;;;3.33;100.00
3142;BME280;1581;51.568;6.998;2023-03-08T05:53:39;99038.69;;;3.23;100.00
3142;BME280;1581;51.568;6.998;2023-03-08T05:56:09;99027.09;;;3.03;100.00
3142;BME280;1581;51.568;6.998;2023-03-08T05:58:37;99028.72;;;3.04;100.00
3142;BME280;1581;51.568;6.998;2023-03-08T06:01:11;99019.66;;;2.92;100.00
3142;BME280;1581;51.568;6.998;2023-03-08T06:03:42;99018.16;;;3.33;100.00
3142;BME280;1581;51.568;6.998;2023-03-08T06:06:10;99007.22;;;3.36;100.00
3142;BME280;1581;51.568;6.998;2023-03-08T06:08:38;99007.47;;;3.20;100.00
3142;BME280;1581;51.568;6.998;2023-03-08T06:11:06;99000.78;;;3.03;100.00
3142;BME280;1581;51.568;6.998;2023-03-08T06:13:34;99002.66;;;3.09;100.00
3142;BME280;1581;51.568;6.998;2023-03-08T06:16:03;99000.78;;;2.88;100.00
3142;BME280;1581;51.568;6.998;2023-03-08T06:18:34;98993.88;;;3.02;100.00
3142;BME280;1581;51.568;6.998;2023-03-08T06:21:05;98993.31;;;3.06;100.00
3142;BME280;1581;51.568;6.998;2023-03-08T06:23:34;98985.34;;;3.00;100.00
3142;BME280;1581;51.568;6.998;2023-03-08T06:26:03;98978.84;;;3.31;100.00
3142;BME280;1581;51.568;6.998;2023-03-08T06:28:31;98974.00;;;2.85;100.00
3142;BME280;1581;51.568;6.998;2023-03-08T06:31:00;98964.72;;;3.18;100.00
3142;BME280;1581;51.568;6.998;2023-03-08T06:33:30;98968.31;;;3.31;100.00
3142;BME280;1581;51.568;6.998;2023-03-08T06:36:02;98965.78;;;3.23;100.00
3142;BME280;1581;51.568;6.998;2023-03-08T06:38:32;98953.75;;;3.49;100.00
3142;BME280;1581;51.568;6.998;2023-03-08T06:41:01;98949.41;;;3.42;100.00
3142;BME280;1581;51.568;6.998;2023-03-08T06:43:29;98953.06;;;3.27;100.00
3142;BME280;1581;51.568;6.998;2023-03-08T06:45:56;98948.31;;;3.37;100.00
3142;BME280;1581;51.568;6.998;2023-03-08T06:48:24;98946.13;;;3.40;100.00
3142;BME280;1581;51.568;6.998;2023-03-08T06:50:53;98944.09;;;3.21;100.00
3142;BME280;1581;51.568;6.998;2023-03-08T06:53:23;98941.63;;;3.34;100.00
3142;BME280;1581;51.568;6.998;2023-03-08T06:55:50;98940.56;;;3.29;100.00
3142;BME280;1581;51.568;6.998;2023-03-08T06:58:18;98931.91;;;3.14;100.00
3142;BME280;1581;51.568;6.998;2023-03-08T07:00:46;98947.88;;;2.98;100.00
3142;BME280;1581;51.568;6.998;2023-03-08T07:03:14;98941.91;;;2.75;100.00
3142;BME280;1581;51.568;6.998;2023-03-08T07:05:42;98951.09;;;2.64;100.00
3142;BME280;1581;51.568;6.998;2023-03-08T07:08:09;98946.63;;;2.51;100.00
3142;BME280;1581;51.568;6.998;2023-03-08T07:10:39;98937.81;;;2.87;100.00
3142;BME280;1581;51.568;6.998;2023-03-08T07:13:06;98940.63;;;3.00;100.00
3142;BME280;1581;51.568;6.998;2023-03-08T07:15:38;98938.25;;;3.05;100.00
3142;BME280;1581;51.568;6.998;2023-03-08T07:18:06;98937.56;;;2.96;100.00
3142;BME280;1581;51.568;6.998;2023-03-08T07:20:34;98939.03;;;2.41;100.00
3142;BME280;1581;51.568;6.998;2023-03-08T07:23:02;98930.59;;;2.60;100.00
3142;BME280;1581;51.568;6.998;2023-03-08T07:25:29;98930.88;;;2.79;100.00
3142;BME280;1581;51.568;6.998;2023-03-08T07:27:59;98927.19;;;2.95;100.00
3142;BME280;1581;51.568;6.998;2023-03-08T07:30:27;98926.25;;;2.67;100.00
3142;BME280;1581;51.568;6.998;2023-03-08T07:32:55;98929.50;;;2.69;100.00
3142;BME280;1581;51.568;6.998;2023-03-08T07:35:23;98924.22;;;2.83;100.00
3142;BME280;1581;51.568;6.998;2023-03-08T07:37:51;98923.69;;;2.73;100.00
3142;BME280;1581;51.568;6.998;2023-03-08T07:40:19;98922.13;;;2.93;100.00
3142;BME280;1581;51.568;6.998;2023-03-08T07:42:47;98920.38;;;3.00;100.00
3142;BME280;1581;51.568;6.998;2023-03-08T07:45:16;98920.31;;;3.08;100.00
3142;BME280;1581;51.568;6.998;2023-03-08T07:47:44;98926.78;;;2.77;100.00
3142;BME280;1581;51.568;6.998;2023-03-08T07:50:12;98917.69;;;2.94;100.00
3142;BME280;1581;51.568;6.998;2023-03-08T07:52:39;98917.63;;;2.87;100.00
3142;BME280;1581;51.568;6.998;2023-03-08T07:55:08;98924.13;;;2.91;100.00
3142;BME280;1581;51.568;6.998;2023-03-08T07:57:36;98921.56;;;2.98;100.00
3142;BME280;1581;51.568;6.998;2023-03-08T08:00:07;98913.75;;;2.69;100.00
3142;BME280;1581;51.568;6.998;2023-03-08T08:02:37;98908.50;;;2.54;100.00
3142;BME280;1581;51.568;6.998;2023-03-08T08:05:06;98905.81;;;2.83;100.00
3142;BME280;1581;51.568;6.998;2023-03-08T08:07:33;98899.91;;;2.96;100.00
3142;BME280;1581;51.568;6.998;2023-03-08T08:10:01;98894.13;;;2.86;100.00
3142;BME280;1581;51.568;6.998;2023-03-08T08:12:29;98897.91;;;2.98;100.00
3142;BME280;1581;51.568;6.998;2023-03-08T08:14:56;98890.53;;;3.08;100.00
3142;BME280;1581;51.568;6.998;2023-03-08T08:17:25;98879.28;;;3.14;100.00
3142;BME280;1581;51.568;6.998;2023-03-08T08:19:54;98884.66;;;2.91;100.00
3142;BME280;1581;51.568;6.998;2023-03-08T08:22:22;98888.13;;;2.92;100.00
3142;BME280;1581;51.568;6.998;2023-03-08T08:24:49;98884.50;;;2.93;100.00
3142;BME280;1581;51.568;6.998;2023-03-08T08:27:17;98864.97;;;3.02;100.00
3142;BME280;1581;51.568;6.998;2023-03-08T08:29:44;98876.22;;;2.46;100.00
3142;BME280;1581;51.568;6.998;2023-03-08T08:32:14;98865.41;;;2.70;100.00
3142;BME280;1581;51.568;6.998;2023-03-08T08:34:42;98855.63;;;2.78;100.00
3142;BME280;1581;51.568;6.998;2023-03-08T08:37:11;98847.78;;;2.85;100.00
3142;BME280;1581;51.568;6.998;2023-03-08T08:39:39;98848.75;;;2.98;100.00
3142;BME280;1581;51.568;6.998;2023-03-08T08:42:07;98847.38;;;3.02;100.00
3142;BME280;1581;51.568;6.998;2023-03-08T08:44:35;98836.69;;;3.04;100.00
3142;BME280;1581;51.568;6.998;2023-03-08T08:47:03;98839.34;;;3.10;100.00
3142;BME280;1581;51.568;6.998;2023-03-08T08:49:31;98837.38;;;2.77;100.00
3142;BME280;1581;51.568;6.998;2023-03-08T08:51:59;98830.25;;;2.71;100.00
3142;BME280;1581;51.568;6.998;2023-03-08T08:54:28;98816.91;;;2.93;100.00
3142;BME280;1581;51.568;6.998;2023-03-08T08:56:55;98817.56;;;3.16;100.00
3142;BME280;1581;51.568;6.998;2023-03-08T08:59:23;98823.47;;;3.18;100.00
3142;BME280;1581;51.568;6.998;2023-03-08T09:01:51;98826.03;;;3.33;100.00
3142;BME280;1581;51.568;6.998;2023-03-08T09:04:18;98826.16;;;3.04;100.00
3142;BME280;1581;51.568;6.998;2023-03-08T09:06:46;98821.97;;;2.95;100.00
3142;BME280;1581;51.568;6.998;2023-03-08T09:09:14;98813.16;;;3.02;100.00
3142;BME280;1581;51.568;6.998;2023-03-08T09:11:44;98810.09;;;3.20;100.00
3142;BME280;1581;51.568;6.998;2023-03-08T09:14:13;98814.66;;;3.11;100.00
3142;BME280;1581;51.568;6.998;2023-03-08T09:16:41;98804.41;;;3.16;100.00
3142;BME280;1581;51.568;6.998;2023-03-08T09:19:08;98794.69;;;3.17;100.00
3142;BME280;1581;51.568;6.998;2023-03-08T09:21:37;98794.94;;;3.22;100.00
3142;BME280;1581;51.568;6.998;2023-03-08T09:24:05;98786.97;;;3.36;100.00
3142;BME280;1581;51.568;6.998;2023-03-08T09:26:35;98782.34;;;3.44;100.00
3142;BME280;1581;51.568;6.998;2023-03-08T09:29:04;98777.50;;;3.41;100.00
3142;BME280;1581;51.568;6.998;2023-03-08T09:31:35;98778.00;;;3.31;100.00
3142;BME280;1581;51.568;6.998;2023-03-08T09:34:03;98775.66;;;3.42;100.00
3142;BME280;1581;51.568;6.998;2023-03-08T09:36:34;98781.72;;;3.63;100.00
3142;BME280;1581;51.568;6.998;2023-03-08T09:39:03;98780.75;;;3.43;100.00
3142;BME280;1581;51.568;6.998;2023-03-08T09:41:49;98785.72;;;3.11;100.00
3142;BME280;1581;51.568;6.998;2023-03-08T09:44:56;98773.94;;;3.28;100.00
3142;BME280;1581;51.568;6.998;2023-03-08T09:47:40;98765.75;;;3.44;100.00
3142;BME280;1581;51.568;6.998;2023-03-08T09:50:36;98756.59;;;3.40;100.00
3142;BME280;1581;51.568;6.998;2023-03-08T09:53:17;98759.44;;;3.38;100.00
3142;BME280;1581;51.568;6.998;2023-03-08T09:55:52;98754.34;;;3.58;100.00
3142;BME280;1581;51.568;6.998;2023-03-08T09:58:35;98759.25;;;3.67;100.00
3142;BME280;1581;51.568;6.998;2023-03-08T10:01:23;98755.69;;;3.81;100.00
3142;BME280;1581;51.568;6.998;2023-03-08T10:04:31;98765.41;;;3.81;100.00
3142;BME280;1581;51.568;6.998;2023-03-08T10:07:18;98758.41;;;3.60;100.00
3142;BME280;1581;51.568;6.998;2023-03-08T10:09:56;98753.66;;;3.49;100.00
3142;BME280;1581;51.568;6.998;2023-03-08T10:12:34;98756.53;;;3.88;100.00
3142;BME280;1581;51.568;6.998;2023-03-08T10:15:10;98747.44;;;3.91;100.00
3142;BME280;1581;51.568;6.998;2023-03-08T10:17:47;98740.38;;;3.64;100.00
3142;BME280;1581;51.568;6.998;2023-03-08T10:20:22;98746.16;;;3.80;100.00
3142;BME280;1581;51.568;6.998;2023-03-08T10:22:57;98736.72;;;3.92;100.00
3142;BME280;1581;51.568;6.998;2023-03-08T10:25:26;98731.03;;;3.95;100.00
3142;BME280;1581;51.568;6.998;2023-03-08T10:27:58;98721.13;;;3.97;100.00
3142;BME280;1581;51.568;6.998;2023-03-08T10:30:31;98717.09;;;4.01;100.00
3142;BME280;1581;51.568;6.998;2023-03-08T10:33:06;98713.22;;;3.97;100.00
3142;BME280;1581;51.568;6.998;2023-03-08T10:35:37;98698.72;;;4.14;100.00
3142;BME280;1581;51.568;6.998;2023-03-08T10:38:15;98683.47;;;4.03;100.00
3142;BME280;1581;51.568;6.998;2023-03-08T10:40:43;98684.75;;;3.80;100.00
3142;BME280;1581;51.568;6.998;2023-03-08T10:43:18;98680.50;;;3.72;100.00
3142;BME280;1581;51.568;6.998;2023-03-08T10:45:59;98683.84;;;4.00;100.00
3142;BME280;1581;51.568;6.998;2023-03-08T10:48:30;98686.94;;;4.10;100.00
3142;BME280;1581;51.568;6.998;2023-03-08T10:51:00;98696.25;;;4.13;100.00
3142;BME280;1581;51.568;6.998;2023-03-08T10:53:30;98690.81;;;4.27;100.00
3142;BME280;1581;51.568;6.998;2023-03-08T10:56:00;98692.19;;;4.10;100.00
3142;BME280;1581;51.568;6.998;2023-03-08T10:58:33;98699.16;;;4.24;100.00
3142;BME280;1581;51.568;6.998;2023-03-08T11:01:04;98708.31;;;4.41;100.00
3142;BME280;1581;51.568;6.998;2023-03-08T11:03:34;98694.34;;;4.47;100.00
3142;BME280;1581;51.568;6.998;2023-03-08T11:06:04;98694.28;;;4.27;100.00
3142;BME280;1581;51.568;6.998;2023-03-08T11:08:49;98693.13;;;4.43;100.00
3142;BME280;1581;51.568;6.998;2023-03-08T11:11:17;98705.44;;;4.23;100.00
3142;BME280;1581;51.568;6.998;2023-03-08T11:13:47;98708.06;;;4.29;100.00
3142;BME280;1581;51.568;6.998;2023-03-08T11:16:44;98699.44;;;4.61;100.00
3142;BME280;1581;51.568;6.998;2023-03-08T11:19:35;98691.56;;;4.81;100.00
3142;BME280;1581;51.568;6.998;2023-03-08T11:22:25;98689.53;;;4.83;100.00
3142;BME280;1581;51.568;6.998;2023-03-08T11:25:11;98685.03;;;4.77;100.00
3142;BME280;1581;51.568;6.998;2023-03-08T11:28:04;98674.31;;;4.78;100.00
3142;BME280;1581;51.568;6.998;2023-03-08T11:30:51;98676.94;;;4.91;100.00
3142;BME280;1581;51.568;6.998;2023-03-08T11:33:37;98673.09;;;5.19;100.00
3142;BME280;1581;51.568;6.998;2023-03-08T11:36:15;98672.69;;;5.03;100.00
3142;BME280;1581;51.568;6.998;2023-03-08T11:38:53;98671.25;;;4.88;100.00
3142;BME280;1581;51.568;6.998;2023-03-08T11:41:30;98672.69;;;5.09;100.00
3142;BME280;1581;51.568;6.998;2023-03-08T11:44:20;98679.56;;;4.85;100.00
3142;BME280;1581;51.568;6.998;2023-03-08T11:47:34;98672.47;;;4.85;100.00
3142;BME280;1581;51.568;6.998;2023-03-08T11:50:10;98677.28;;;4.49;100.00
3142;BME280;1581;51.568;6.998;2023-03-08T11:52:52;98678.75;;;4.58;100.00
3142;BME280;1581;51.568;6.998;2023-03-08T11:55:38;98662.25;;;4.24;100.00
3142;BME280;1581;51.568;6.998;2023-03-08T11:58:17;98661.47;;;4.56;100.00
3142;BME280;1581;51.568;6.998;2023-03-08T12:00:52;98655.63;;;4.67;100.00
3142;BME280;1581;51.568;6.998;2023-03-08T12:03:26;98655.81;;;4.59;100.00
3142;BME280;1581;51.568;6.998;2023-03-08T12:06:00;98659.28;;;4.72;100.00
3142;BME280;1581;51.568;6.998;2023-03-08T12:08:40;98661.28;;;4.70;100.00
3142;BME280;1581;51.568;6.998;2023-03-08T12:14:12;98654.41;;;4.56;100.00
3142;BME280;1581;51.568;6.998;2023-03-08T12:16:49;98666.78;;;4.62;100.00
3142;BME280;1581;51.568;6.998;2023-03-08T12:19:29;98663.72;;;4.52;100.00
3142;BME280;1581;51.568;6.998;2023-03-08T12:22:11;98658.69;;;4.64;100.00
3142;BME280;1581;51.568;6.998;2023-03-08T12:24:51;98666.75;;;4.36;100.00
3142;BME280;1581;51.568;6.998;2023-03-08T12:27:27;98659.81;;;4.29;100.00
3142;BME280;1581;51.568;6.998;2023-03-08T12:30:10;98667.59;;;4.63;100.00
3142;BME280;1581;51.568;6.998;2023-03-08T12:32:44;98647.72;;;4.73;100.00
3142;BME280;1581;51.568;6.998;2023-03-08T12:35:29;98622.13;;;4.48;100.00
3142;BME280;1581;51.568;6.998;2023-03-08T12:37:59;98612.41;;;4.87;100.00
3142;BME280;1581;51.568;6.998;2023-03-08T12:40:39;98598.00;;;5.03;100.00
3142;BME280;1581;51.568;6.998;2023-03-08T12:43:11;98605.28;;;4.75;100.00
3142;BME280;1581;51.568;6.998;2023-03-08T12:45:41;98605.13;;;4.83;100.00
3142;BME280;1581;51.568;6.998;2023-03-08T12:48:20;98609.16;;;4.66;100.00
3142;BME280;1581;51.568;6.998;2023-03-08T12:50:58;98611.19;;;4.70;100.00
3142;BME280;1581;51.568;6.998;2023-03-08T12:53:36;98603.09;;;4.72;100.00
3142;BME280;1581;51.568;6.998;2023-03-08T12:56:24;98596.97;;;4.71;100.00
3142;BME280;1581;51.568;6.998;2023-03-08T12:58:55;98607.31;;;4.86;100.00
3142;BME280;1581;51.568;6.998;2023-03-08T13:01:37;98609.97;;;4.99;100.00
3142;BME280;1581;51.568;6.998;2023-03-08T13:04:24;98615.25;;;4.99;100.00
3142;BME280;1581;51.568;6.998;2023-03-08T13:07:24;98611.97;;;5.03;100.00
3142;BME280;1581;51.568;6.998;2023-03-08T13:10:00;98611.34;;;5.20;100.00
3142;BME280;1581;51.568;6.998;2023-03-08T13:12:48;98606.28;;;5.19;100.00
3142;BME280;1581;51.568;6.998;2023-03-08T13:15:23;98605.06;;;5.21;100.00
3142;BME280;1581;51.568;6.998;2023-03-08T13:17:58;98605.69;;;5.23;100.00
3142;BME280;1581;51.568;6.998;2023-03-08T13:21:11;98616.00;;;5.31;100.00
3142;BME280;1581;51.568;6.998;2023-03-08T13:23:48;98606.25;;;5.25;100.00
3142;BME280;1581;51.568;6.998;2023-03-08T13:26:56;98599.78;;;5.21;100.00
3142;BME280;1581;51.568;6.998;2023-03-08T13:29:31;98589.63;;;5.25;100.00
3142;BME280;1581;51.568;6.998;2023-03-08T13:32:06;98586.56;;;5.28;100.00
3142;BME280;1581;51.568;6.998;2023-03-08T13:34:34;98585.31;;;5.37;100.00
3142;BME280;1581;51.568;6.998;2023-03-08T13:37:02;98595.75;;;5.19;100.00
3142;BME280;1581;51.568;6.998;2023-03-08T13:39:30;98600.41;;;4.98;100.00
3142;BME280;1581;51.568;6.998;2023-03-08T13:42:06;98592.50;;;5.04;100.00
3142;BME280;1581;51.568;6.998;2023-03-08T13:44:36;98591.50;;;4.99;100.00
3142;BME280;1581;51.568;6.998;2023-03-08T13:47:18;98584.97;;;5.07;100.00
3142;BME280;1581;51.568;6.998;2023-03-08T13:49:48;98586.03;;;4.94;100.00